sensor_id;sensor_type;location;lat;lon;timestamp;temperature;humidity
11762;DHT22;5938;47.098;15.474;2023-08-01T00:04:01;16.30;99.90
11762;DHT22;5938;47.098;15.474;2023-08-01T00:08:09;16.20;99.90
11762;DHT22;5938;47.098;15.474;2023-08-01T00:12:17;16.20;99.90
11762;DHT22;5938;47.098;15.474;2023-08-01T00:16:48;16.10;99.90
11762;DHT22;5938;47.098;15.474;2023-08-01T00:21:28;16.10;99.90
11762;DHT22;5938;47.098;15.474;2023-08-01T00:26:06;16.10;99.90
11762;DHT22;5938;47.098;15.474;2023-08-01T00:31:05;16.00;99.90
11762;DHT22;5938;47.098;15.474;2023-08-01T00:35:24;15.90;99.90
11762;DHT22;5938;47.098;15.474;2023-08-01T00:39:38;16.00;99.90
11762;DHT22;5938;47.098;15.474;2023-08-01T00:43:47;16.00;99.90
11762;DHT22;5938;47.098;15.474;2023-08-01T00:48:11;15.90;99.90
11762;DHT22;5938;47.098;15.474;2023-08-01T00:52:18;15.80;99.90
11762;DHT22;5938;47.098;15.474;2023-08-01T00:56:25;15.80;99.90
11762;DHT22;5938;47.098;15.474;2023-08-01T01:00:35;15.80;99.90
11762;DHT22;5938;47.098;15.474;2023-08-01T01:04:47;15.70;99.90
11762;DHT22;5938;47.098;15.474;2023-08-01T01:08:59;15.70;99.90
11762;DHT22;5938;47.098;15.474;2023-08-01T01:13:16;15.70;99.90
11762;DHT22;5938;47.098;15.474;2023-08-01T01:17:28;15.60;99.90
11762;DHT22;5938;47.098;15.474;2023-08-01T01:21:47;15.60;99.90
11762;DHT22;5938;47.098;15.474;2023-08-01T01:25:57;15.60;99.90
11762;DHT22;5938;47.098;15.474;2023-08-01T01:30:13;15.60;99.90
11762;DHT22;5938;47.098;15.474;2023-08-01T01:34:25;15.50;99.90
11762;DHT22;5938;47.098;15.474;2023-08-01T01:39:23;15.50;99.90
11762;DHT22;5938;47.098;15.474;2023-08-01T01:43:50;15.50;99.90
11762;DHT22;5938;47.098;15.474;2023-08-01T01:47:59;15.40;99.90
11762;DHT22;5938;47.098;15.474;2023-08-01T01:52:10;15.40;99.90
11762;DHT22;5938;47.098;15.474;2023-08-01T01:56:21;15.30;99.90
11762;DHT22;5938;47.098;15.474;2023-08-01T02:00:45;15.30;99.90
11762;DHT22;5938;47.098;15.474;2023-08-01T02:05:19;15.20;99.90
11762;DHT22;5938;47.098;15.474;2023-08-01T02:09:24;15.30;99.90
11762;DHT22;5938;47.098;15.474;2023-08-01T02:13:29;15.30;99.90
11762;DHT22;5938;47.098;15.474;2023-08-01T02:17:36;15.20;99.90
11762;DHT22;5938;47.098;15.474;2023-08-01T02:21:54;15.20;99.90
11762;DHT22;5938;47.098;15.474;2023-08-01T02:25:59;15.10;99.90
11762;DHT22;5938;47.098;15.474;2023-08-01T02:30:15;15.10;99.90
11762;DHT22;5938;47.098;15.474;2023-08-01T02:34:19;15.10;99.90
11762;DHT22;5938;47.098;15.474;2023-08-01T02:38:26;15.10;99.90
11762;DHT22;5938;47.098;15.474;2023-08-01T02:42:43;15.10;99.90
11762;DHT22;5938;47.098;15.474;2023-08-01T02:46:49;15.10;99.90
11762;DHT22;5938;47.098;15.474;2023-08-01T02:50:54;15.10;99.90
11762;DHT22;5938;47.098;15.474;2023-08-01T02:54:57;15.00;99.90
11762;DHT22;5938;47.098;15.474;2023-08-01T02:59:00;15.00;99.90
11762;DHT22;5938;47.098;15.474;2023-08-01T03:03:06;15.00;99.90
11762;DHT22;5938;47.098;15.474;2023-08-01T03:07:10;15.00;99.90
11762;DHT22;5938;47.098;15.474;2023-08-01T03:11:13;14.90;99.90
11762;DHT22;5938;47.098;15.474;2023-08-01T03:15:16;14.90;99.90
11762;DHT22;5938;47.098;15.474;2023-08-01T03:19:21;14.90;99.90
11762;DHT22;5938;47.098;15.474;2023-08-01T03:23:26;14.90;99.90
11762;DHT22;5938;47.098;15.474;2023-08-01T03:27:29;14.90;99.90
11762;DHT22;5938;47.098;15.474;2023-08-01T03:31:32;14.90;99.90
11762;DHT22;5938;47.098;15.474;2023-08-01T03:35:38;14.90;99.90
11762;DHT22;5938;47.098;15.474;2023-08-01T03:39:41;14.90;99.90
11762;DHT22;5938;47.098;15.474;2023-08-01T03:43:44;14.80;99.90
11762;DHT22;5938;47.098;15.474;2023-08-01T03:47:48;14.80;99.90
11762;DHT22;5938;47.098;15.474;2023-08-01T03:51:53;14.80;99.90
11762;DHT22;5938;47.098;15.474;2023-08-01T03:56:00;14.70;99.90
11762;DHT22;5938;47.098;15.474;2023-08-01T04:00:05;14.80;99.90
11762;DHT22;5938;47.098;15.474;2023-08-01T04:04:15;14.80;99.90
11762;DHT22;5938;47.098;15.474;2023-08-01T04:08:20;14.80;99.90
11762;DHT22;5938;47.098;15.474;2023-08-01T04:12:23;14.90;99.90
11762;DHT22;5938;47.098;15.474;2023-08-01T04:16:27;14.90;99.90
11762;DHT22;5938;47.098;15.474;2023-08-01T04:20:31;14.90;99.90
11762;DHT22;5938;47.098;15.474;2023-08-01T04:24:36;15.00;99.90
11762;DHT22;5938;47.098;15.474;2023-08-01T04:28:39;15.00;99.90
11762;DHT22;5938;47.098;15.474;2023-08-01T04:32:42;15.10;99.90
11762;DHT22;5938;47.098;15.474;2023-08-01T04:36:46;15.20;99.90
11762;DHT22;5938;47.098;15.474;2023-08-01T04:40:51;15.30;99.90
11762;DHT22;5938;47.098;15.474;2023-08-01T04:44:54;15.50;99.90
11762;DHT22;5938;47.098;15.474;2023-08-01T04:48:57;15.60;99.90
11762;DHT22;5938;47.098;15.474;2023-08-01T04:53:01;15.80;99.90
11762;DHT22;5938;47.098;15.474;2023-08-01T04:57:06;16.10;99.90
11762;DHT22;5938;47.098;15.474;2023-08-01T05:01:10;16.40;99.90
11762;DHT22;5938;47.098;15.474;2023-08-01T05:05:14;16.60;99.90
11762;DHT22;5938;47.098;15.474;2023-08-01T05:09:18;16.80;99.90
11762;DHT22;5938;47.098;15.474;2023-08-01T05:13:23;17.00;99.90
11762;DHT22;5938;47.098;15.474;2023-08-01T05:17:26;17.10;99.90
11762;DHT22;5938;47.098;15.474;2023-08-01T05:21:32;17.20;99.90
11762;DHT22;5938;47.098;15.474;2023-08-01T05:25:37;17.10;99.90
11762;DHT22;5938;47.098;15.474;2023-08-01T05:29:54;17.40;99.90
11762;DHT22;5938;47.098;15.474;2023-08-01T05:34:02;17.60;99.90
11762;DHT22;5938;47.098;15.474;2023-08-01T05:38:06;17.80;99.90
11762;DHT22;5938;47.098;15.474;2023-08-01T05:42:11;18.20;99.90
11762;DHT22;5938;47.098;15.474;2023-08-01T05:46:16;18.50;99.90
11762;DHT22;5938;47.098;15.474;2023-08-01T05:50:19;18.90;99.90
11762;DHT22;5938;47.098;15.474;2023-08-01T05:54:24;19.00;99.90
11762;DHT22;5938;47.098;15.474;2023-08-01T05:58:28;19.20;99.90
11762;DHT22;5938;47.098;15.474;2023-08-01T06:02:33;19.60;99.90
11762;DHT22;5938;47.098;15.474;2023-08-01T06:06:37;19.80;99.90
11762;DHT22;5938;47.098;15.474;2023-08-01T06:10:41;19.90;99.90
11762;DHT22;5938;47.098;15.474;2023-08-01T06:14:46;20.00;99.90
11762;DHT22;5938;47.098;15.474;2023-08-01T06:18:51;20.20;99.90
11762;DHT22;5938;47.098;15.474;2023-08-01T06:22:55;20.40;99.90
11762;DHT22;5938;47.098;15.474;2023-08-01T06:27:00;20.50;99.90
11762;DHT22;5938;47.098;15.474;2023-08-01T06:31:04;20.90;99.90
11762;DHT22;5938;47.098;15.474;2023-08-01T06:35:09;21.30;99.90
11762;DHT22;5938;47.098;15.474;2023-08-01T06:39:13;21.90;99.90
11762;DHT22;5938;47.098;15.474;2023-08-01T06:43:16;22.30;99.90
11762;DHT22;5938;47.098;15.474;2023-08-01T06:47:21;22.60;99.90
11762;DHT22;5938;47.098;15.474;2023-08-01T06:51:26;22.60;99.90
11762;DHT22;5938;47.098;15.474;2023-08-01T06:55:30;22.30;99.90
11762;DHT22;5938;47.098;15.474;2023-08-01T06:59:34;22.40;99.90
11762;DHT22;5938;47.098;15.474;2023-08-01T07:03:37;22.60;99.90
11762;DHT22;5938;47.098;15.474;2023-08-01T07:07:42;22.40;99.90
11762;DHT22;5938;47.098;15.474;2023-08-01T07:11:45;22.30;99.90
11762;DHT22;5938;47.098;15.474;2023-08-01T07:15:50;22.40;99.90
11762;DHT22;5938;47.098;15.474;2023-08-01T07:19:53;22.50;99.90
11762;DHT22;5938;47.098;15.474;2023-08-01T07:23:58;22.90;99.90
11762;DHT22;5938;47.098;15.474;2023-08-01T07:28:03;23.30;99.90
11762;DHT22;5938;47.098;15.474;2023-08-01T07:32:07;23.90;99.90
11762;DHT22;5938;47.098;15.474;2023-08-01T07:36:10;24.30;99.90
11762;DHT22;5938;47.098;15.474;2023-08-01T07:40:15;24.10;99.90
11762;DHT22;5938;47.098;15.474;2023-08-01T07:44:18;24.40;99.90
11762;DHT22;5938;47.098;15.474;2023-08-01T07:48:24;23.80;99.90
11762;DHT22;5938;47.098;15.474;2023-08-01T07:52:27;23.50;99.90
11762;DHT22;5938;47.098;15.474;2023-08-01T07:56:33;23.40;99.90
11762;DHT22;5938;47.098;15.474;2023-08-01T08:00:37;24.00;99.90
11762;DHT22;5938;47.098;15.474;2023-08-01T08:04:40;24.10;99.90
11762;DHT22;5938;47.098;15.474;2023-08-01T08:08:44;24.60;99.90
11762;DHT22;5938;47.098;15.474;2023-08-01T08:12:49;24.60;99.90
11762;DHT22;5938;47.098;15.474;2023-08-01T08:16:53;23.80;99.90
11762;DHT22;5938;47.098;15.474;2023-08-01T08:20:57;24.50;99.90
11762;DHT22;5938;47.098;15.474;2023-08-01T08:25:00;24.50;99.90
11762;DHT22;5938;47.098;15.474;2023-08-01T08:29:05;24.40;99.90
11762;DHT22;5938;47.098;15.474;2023-08-01T08:33:09;23.90;99.90
11762;DHT22;5938;47.098;15.474;2023-08-01T08:37:22;24.00;99.90
11762;DHT22;5938;47.098;15.474;2023-08-01T08:41:26;24.10;99.90
11762;DHT22;5938;47.098;15.474;2023-08-01T08:45:34;24.30;99.90
11762;DHT22;5938;47.098;15.474;2023-08-01T08:49:40;24.50;99.90
11762;DHT22;5938;47.098;15.474;2023-08-01T08:53:45;24.60;99.90
11762;DHT22;5938;47.098;15.474;2023-08-01T08:57:50;24.50;99.90
11762;DHT22;5938;47.098;15.474;2023-08-01T09:01:56;25.00;99.90
11762;DHT22;5938;47.098;15.474;2023-08-01T09:06:06;25.60;99.90
11762;DHT22;5938;47.098;15.474;2023-08-01T09:10:10;25.40;99.90
11762;DHT22;5938;47.098;15.474;2023-08-01T09:14:16;25.10;99.90
11762;DHT22;5938;47.098;15.474;2023-08-01T09:18:21;25.20;99.90
11762;DHT22;5938;47.098;15.474;2023-08-01T09:22:25;25.70;99.90
11762;DHT22;5938;47.098;15.474;2023-08-01T09:26:30;26.90;99.90
11762;DHT22;5938;47.098;15.474;2023-08-01T09:30:34;27.20;99.90
11762;DHT22;5938;47.098;15.474;2023-08-01T09:34:41;26.90;99.90
11762;DHT22;5938;47.098;15.474;2023-08-01T09:38:45;26.00;99.90
11762;DHT22;5938;47.098;15.474;2023-08-01T09:42:49;26.10;99.90
11762;DHT22;5938;47.098;15.474;2023-08-01T09:46:59;26.10;99.90
11762;DHT22;5938;47.098;15.474;2023-08-01T09:51:12;25.70;99.90
11762;DHT22;5938;47.098;15.474;2023-08-01T09:55:16;25.70;99.90
11762;DHT22;5938;47.098;15.474;2023-08-01T09:59:23;25.10;99.90
11762;DHT22;5938;47.098;15.474;2023-08-01T10:03:27;25.20;99.90
11762;DHT22;5938;47.098;15.474;2023-08-01T10:07:34;24.90;99.90
11762;DHT22;5938;47.098;15.474;2023-08-01T10:11:39;25.00;99.90
11762;DHT22;5938;47.098;15.474;2023-08-01T10:15:44;24.50;99.90
11762;DHT22;5938;47.098;15.474;2023-08-01T10:19:49;24.00;99.90
11762;DHT22;5938;47.098;15.474;2023-08-01T10:23:55;24.10;99.90
11762;DHT22;5938;47.098;15.474;2023-08-01T10:28:06;24.00;99.90
11762;DHT22;5938;47.098;15.474;2023-08-01T10:32:10;24.00;99.90
11762;DHT22;5938;47.098;15.474;2023-08-01T10:36:19;23.80;99.90
11762;DHT22;5938;47.098;15.474;2023-08-01T10:40:36;23.20;99.90
11762;DHT22;5938;47.098;15.474;2023-08-01T10:44:45;22.50;99.90
11762;DHT22;5938;47.098;15.474;2023-08-01T10:48:50;22.30;99.90
11762;DHT22;5938;47.098;15.474;2023-08-01T10:53:02;22.20;99.90
11762;DHT22;5938;47.098;15.474;2023-08-01T10:57:08;22.10;99.90
11762;DHT22;5938;47.098;15.474;2023-08-01T11:01:12;21.90;99.90
11762;DHT22;5938;47.098;15.474;2023-08-01T11:05:39;21.60;99.90
11762;DHT22;5938;47.098;15.474;2023-08-01T11:10:04;21.30;99.90
11762;DHT22;5938;47.098;15.474;2023-08-01T14:13:10;15.80;99.90
11762;DHT22;5938;47.098;15.474;2023-08-01T14:17:15;15.90;99.90
11762;DHT22;5938;47.098;15.474;2023-08-01T14:21:18;15.90;99.90
11762;DHT22;5938;47.098;15.474;2023-08-01T14:25:22;16.00;99.90
11762;DHT22;5938;47.098;15.474;2023-08-01T14:29:28;16.00;99.90
11762;DHT22;5938;47.098;15.474;2023-08-01T14:33:31;16.00;99.90
11762;DHT22;5938;47.098;15.474;2023-08-01T14:37:36;16.00;99.90
11762;DHT22;5938;47.098;15.474;2023-08-01T14:41:40;16.00;99.90
11762;DHT22;5938;47.098;15.474;2023-08-01T14:45:48;16.00;99.90
11762;DHT22;5938;47.098;15.474;2023-08-01T14:49:54;16.00;99.90
11762;DHT22;5938;47.098;15.474;2023-08-01T14:53:58;16.00;99.90
11762;DHT22;5938;47.098;15.474;2023-08-01T14:58:02;16.10;99.90
11762;DHT22;5938;47.098;15.474;2023-08-01T15:02:08;16.10;99.90
11762;DHT22;5938;47.098;15.474;2023-08-01T15:06:13;16.30;99.90
11762;DHT22;5938;47.098;15.474;2023-08-01T15:10:17;16.40;99.90
11762;DHT22;5938;47.098;15.474;2023-08-01T15:14:21;16.40;99.90
11762;DHT22;5938;47.098;15.474;2023-08-01T15:18:26;16.50;99.90
11762;DHT22;5938;47.098;15.474;2023-08-01T15:22:30;16.50;99.90
11762;DHT22;5938;47.098;15.474;2023-08-01T15:26:34;16.50;99.90
11762;DHT22;5938;47.098;15.474;2023-08-01T15:30:38;16.60;99.90
11762;DHT22;5938;47.098;15.474;2023-08-01T15:34:43;16.80;99.90
11762;DHT22;5938;47.098;15.474;2023-08-01T15:38:48;16.80;99.90
11762;DHT22;5938;47.098;15.474;2023-08-01T15:42:51;16.90;99.90
11762;DHT22;5938;47.098;15.474;2023-08-01T15:46:55;16.80;99.90
11762;DHT22;5938;47.098;15.474;2023-08-01T15:51:02;16.60;99.90
11762;DHT22;5938;47.098;15.474;2023-08-01T15:55:07;16.50;99.90
11762;DHT22;5938;47.098;15.474;2023-08-01T15:59:12;16.50;99.90
11762;DHT22;5938;47.098;15.474;2023-08-01T16:03:17;16.40;99.90
11762;DHT22;5938;47.098;15.474;2023-08-01T16:07:24;16.30;99.90
11762;DHT22;5938;47.098;15.474;2023-08-01T16:11:28;16.40;99.90
11762;DHT22;5938;47.098;15.474;2023-08-01T16:15:33;16.40;99.90
11762;DHT22;5938;47.098;15.474;2023-08-01T16:19:37;16.40;99.90
11762;DHT22;5938;47.098;15.474;2023-08-01T16:23:43;16.30;99.90
11762;DHT22;5938;47.098;15.474;2023-08-01T16:27:48;16.40;99.90
11762;DHT22;5938;47.098;15.474;2023-08-01T16:31:53;16.40;99.90
11762;DHT22;5938;47.098;15.474;2023-08-01T16:35:58;16.40;99.90
11762;DHT22;5938;47.098;15.474;2023-08-01T16:40:04;16.40;99.90
11762;DHT22;5938;47.098;15.474;2023-08-01T16:44:09;16.40;99.90
11762;DHT22;5938;47.098;15.474;2023-08-01T16:48:14;16.30;99.90
11762;DHT22;5938;47.098;15.474;2023-08-01T16:57:42;16.30;99.90
11762;DHT22;5938;47.098;15.474;2023-08-01T17:01:47;16.30;99.90
11762;DHT22;5938;47.098;15.474;2023-08-01T17:05:52;16.20;99.90
11762;DHT22;5938;47.098;15.474;2023-08-01T17:15:23;16.20;99.90
11762;DHT22;5938;47.098;15.474;2023-08-01T17:20:07;16.20;99.90
11762;DHT22;5938;47.098;15.474;2023-08-01T17:24:55;16.20;99.90
11762;DHT22;5938;47.098;15.474;2023-08-01T17:29:01;16.20;99.90
11762;DHT22;5938;47.098;15.474;2023-08-01T17:34:05;16.10;99.90
11762;DHT22;5938;47.098;15.474;2023-08-01T17:54:48;16.10;99.90
11762;DHT22;5938;47.098;15.474;2023-08-01T17:58:55;16.00;99.90
11762;DHT22;5938;47.098;15.474;2023-08-01T18:03:04;15.80;99.90
11762;DHT22;5938;47.098;15.474;2023-08-01T18:07:14;15.70;99.90
11762;DHT22;5938;47.098;15.474;2023-08-01T18:11:22;15.70;99.90
11762;DHT22;5938;47.098;15.474;2023-08-01T18:15:37;15.60;99.90
11762;DHT22;5938;47.098;15.474;2023-08-01T18:19:51;15.60;99.90
11762;DHT22;5938;47.098;15.474;2023-08-01T18:24:02;15.70;99.90
11762;DHT22;5938;47.098;15.474;2023-08-01T18:28:16;15.60;99.90
11762;DHT22;5938;47.098;15.474;2023-08-01T18:32:31;15.60;99.90
11762;DHT22;5938;47.098;15.474;2023-08-01T18:36:41;15.50;99.90
11762;DHT22;5938;47.098;15.474;2023-08-01T18:40:50;15.50;99.90
11762;DHT22;5938;47.098;15.474;2023-08-01T18:45:14;15.50;99.90
11762;DHT22;5938;47.098;15.474;2023-08-01T18:49:24;15.60;99.90
11762;DHT22;5938;47.098;15.474;2023-08-01T18:53:36;15.60;99.90
11762;DHT22;5938;47.098;15.474;2023-08-01T18:57:56;15.50;99.90
11762;DHT22;5938;47.098;15.474;2023-08-01T19:02:06;15.60;99.90
11762;DHT22;5938;47.098;15.474;2023-08-01T19:06:15;15.50;99.90
11762;DHT22;5938;47.098;15.474;2023-08-01T19:10:26;15.40;99.90
11762;DHT22;5938;47.098;15.474;2023-08-01T19:14:31;15.50;99.90
11762;DHT22;5938;47.098;15.474;2023-08-01T19:18:43;15.50;99.90
11762;DHT22;5938;47.098;15.474;2023-08-01T19:22:52;15.50;99.90
11762;DHT22;5938;47.098;15.474;2023-08-01T19:26:58;15.60;99.90
11762;DHT22;5938;47.098;15.474;2023-08-01T19:31:08;15.60;99.90
11762;DHT22;5938;47.098;15.474;2023-08-01T19:35:16;15.60;99.90
11762;DHT22;5938;47.098;15.474;2023-08-01T19:39:24;15.60;99.90
11762;DHT22;5938;47.098;15.474;2023-08-01T19:43:33;15.60;99.90
11762;DHT22;5938;47.098;15.474;2023-08-01T19:47:38;15.60;99.90
11762;DHT22;5938;47.098;15.474;2023-08-01T19:51:48;15.60;99.90
11762;DHT22;5938;47.098;15.474;2023-08-01T19:55:57;15.60;99.90
11762;DHT22;5938;47.098;15.474;2023-08-01T20:00:02;15.60;99.90
11762;DHT22;5938;47.098;15.474;2023-08-01T20:04:09;15.60;99.90
11762;DHT22;5938;47.098;15.474;2023-08-01T20:08:17;15.60;99.90
11762;DHT22;5938;47.098;15.474;2023-08-01T20:12:22;15.60;99.90
11762;DHT22;5938;47.098;15.474;2023-08-01T20:16:33;15.70;99.90
11762;DHT22;5938;47.098;15.474;2023-08-01T20:20:40;15.60;99.90
11762;DHT22;5938;47.098;15.474;2023-08-01T20:24:55;15.50;99.90
11762;DHT22;5938;47.098;15.474;2023-08-01T20:29:03;15.60;99.90
11762;DHT22;5938;47.098;15.474;2023-08-01T20:33:09;15.60;99.90
11762;DHT22;5938;47.098;15.474;2023-08-01T20:37:15;15.60;99.90
11762;DHT22;5938;47.098;15.474;2023-08-01T20:41:23;15.60;99.90
11762;DHT22;5938;47.098;15.474;2023-08-01T20:45:29;15.40;99.90
11762;DHT22;5938;47.098;15.474;2023-08-01T20:49:47;15.50;99.90
11762;DHT22;5938;47.098;15.474;2023-08-01T20:53:55;15.60;99.90
11762;DHT22;5938;47.098;15.474;2023-08-01T20:58:09;15.70;99.90
11762;DHT22;5938;47.098;15.474;2023-08-01T21:02:13;15.70;99.90
11762;DHT22;5938;47.098;15.474;2023-08-01T21:06:18;15.60;99.90
11762;DHT22;5938;47.098;15.474;2023-08-01T21:10:21;15.50;99.90
11762;DHT22;5938;47.098;15.474;2023-08-01T21:14:26;15.60;99.90
11762;DHT22;5938;47.098;15.474;2023-08-01T21:18:30;15.40;99.90
11762;DHT22;5938;47.098;15.474;2023-08-01T21:22:34;15.30;99.90
11762;DHT22;5938;47.098;15.474;2023-08-01T21:26:37;15.10;99.90
11762;DHT22;5938;47.098;15.474;2023-08-01T21:30:44;15.00;99.90
11762;DHT22;5938;47.098;15.474;2023-08-01T21:34:47;14.80;99.90
11762;DHT22;5938;47.098;15.474;2023-08-01T21:38:51;14.70;99.90
11762;DHT22;5938;47.098;15.474;2023-08-01T21:42:55;14.60;99.90
11762;DHT22;5938;47.098;15.474;2023-08-01T21:47:00;14.70;99.90
11762;DHT22;5938;47.098;15.474;2023-08-01T21:51:04;14.70;99.90
11762;DHT22;5938;47.098;15.474;2023-08-01T21:55:08;14.70;99.90
11762;DHT22;5938;47.098;15.474;2023-08-01T21:59:12;14.60;99.90
11762;DHT22;5938;47.098;15.474;2023-08-01T22:03:18;14.70;99.90
11762;DHT22;5938;47.098;15.474;2023-08-01T22:07:22;14.70;99.90
11762;DHT22;5938;47.098;15.474;2023-08-01T22:11:26;14.80;99.90
11762;DHT22;5938;47.098;15.474;2023-08-01T22:15:30;14.90;99.90
11762;DHT22;5938;47.098;15.474;2023-08-01T22:19:35;14.90;99.90
11762;DHT22;5938;47.098;15.474;2023-08-01T22:23:39;14.90;99.90
11762;DHT22;5938;47.098;15.474;2023-08-01T22:27:42;14.90;99.90
11762;DHT22;5938;47.098;15.474;2023-08-01T22:31:46;14.70;99.90
11762;DHT22;5938;47.098;15.474;2023-08-01T22:35:51;14.60;99.90
11762;DHT22;5938;47.098;15.474;2023-08-01T22:39:55;14.50;99.90
11762;DHT22;5938;47.098;15.474;2023-08-01T22:43:59;14.40;99.90
11762;DHT22;5938;47.098;15.474;2023-08-01T22:48:03;14.40;99.90
11762;DHT22;5938;47.098;15.474;2023-08-01T22:52:09;14.30;99.90
11762;DHT22;5938;47.098;15.474;2023-08-01T22:56:12;14.20;99.90
11762;DHT22;5938;47.098;15.474;2023-08-01T23:00:16;14.10;99.90
11762;DHT22;5938;47.098;15.474;2023-08-01T23:04:20;14.00;99.90
11762;DHT22;5938;47.098;15.474;2023-08-01T23:08:25;14.00;99.90
11762;DHT22;5938;47.098;15.474;2023-08-01T23:12:28;13.80;99.90
11762;DHT22;5938;47.098;15.474;2023-08-01T23:16:32;13.80;99.90
11762;DHT22;5938;47.098;15.474;2023-08-01T23:20:36;13.80;99.90
11762;DHT22;5938;47.098;15.474;2023-08-01T23:24:41;13.70;99.90
11762;DHT22;5938;47.098;15.474;2023-08-01T23:28:50;13.50;99.90
11762;DHT22;5938;47.098;15.474;2023-08-01T23:32:54;13.50;99.90
11762;DHT22;5938;47.098;15.474;2023-08-01T23:36:57;13.50;99.90
11762;DHT22;5938;47.098;15.474;2023-08-01T23:41:11;13.40;99.90
11762;DHT22;5938;47.098;15.474;2023-08-01T23:45:14;13.40;99.90
11762;DHT22;5938;47.098;15.474;2023-08-01T23:49:18;13.40;99.90
11762;DHT22;5938;47.098;15.474;2023-08-01T23:53:23;13.40;99.90
11762;DHT22;5938;47.098;15.474;2023-08-01T23:57:28;13.50;99.90
